CW2798 Aduanas ES current weather conditions

sailwx.info

Wind from 086 at 6 knots gusting 12

Air temperature 25.6° C
Dewpoint 21.0° C

Last reported at 2014-Aug-23 12:30 UTC.
Time now 2014-Aug-23 13:27 UTC

Location: N 38°48' E 000°11'.
View on Google Maps.

See reports from other nearby stations

  
Tides and Currents Weather Stations Pressure Air Temp Water Temp Dewpoint Dewpoint Depression Visibility Wind Speed Wind Dir Waves Ship Positions
date/time (UTC)wind fromknots sea level pressurealtimeterstation pressurevisibilityair tempwater tempwave heightnotes
2014-Aug-23 12:30 086 6 gusting 12 25.6
2014-Aug-23 12:15 080 6 gusting 11 25.6
2014-Aug-23 11:45 078 6 gusting 11 25.6
2014-Aug-23 11:00 085 6 gusting 11 25.0
2014-Aug-23 10:45 088 7 gusting 13 25.0
2014-Aug-23 09:30 081 7 gusting 10 25.0
2014-Aug-23 09:15 086 7 gusting 14 25.0
2014-Aug-23 09:00 085 5 gusting 12 25.0
2014-Aug-23 08:45 063 5 gusting 12 24.4
2014-Aug-23 08:30 076 6 gusting 12 24.4
2014-Aug-23 07:30 067 4 gusting 9 23.9
2014-Aug-23 06:00 031 6 gusting 16 23.9
2014-Aug-23 05:45 028 7 gusting 19 24.4
2014-Aug-23 05:15 016 2 gusting 6 24.4
2014-Aug-23 05:00 042 1 gusting 5 25.0
2014-Aug-23 04:30 351 2 gusting 6 24.4
2014-Aug-23 04:15 340 1 gusting 4 24.4
2014-Aug-23 04:00 097 0 gusting 6 24.4
2014-Aug-23 03:30 067 1 gusting 6 24.4
2014-Aug-23 03:15 093 0 gusting 6 24.4
2014-Aug-23 03:00 052 3 gusting 13 24.4
2014-Aug-23 02:45 089 1 gusting 9 25.0
2014-Aug-23 02:30 355 0 gusting 2 25.0
2014-Aug-23 02:15 087 1 gusting 9 25.0
2014-Aug-23 02:00 25.0
2014-Aug-23 01:45 110 1 gusting 5 25.0
2014-Aug-23 01:30 224 0 gusting 0 25.0
2014-Aug-23 01:00 054 1 gusting 6 25.0
2014-Aug-23 00:30 073 2 gusting 6 25.6
2014-Aug-23 00:15 071 4 gusting 8 25.6
2014-Aug-22 23:45 053 6 gusting 10 25.6
2014-Aug-22 23:30 064 3 gusting 12 25.6
2014-Aug-22 23:15 065 6 gusting 9 25.6
2014-Aug-22 23:00 043 6 gusting 14 26.1
2014-Aug-22 22:30 306 5 gusting 8 25.6
2014-Aug-22 22:15 281 6 gusting 16 25.6
2014-Aug-22 21:00 282 3 gusting 4 25.6
2014-Aug-22 19:15 268 4 gusting 7 25.6
2014-Aug-22 18:45 246 4 gusting 7 25.6
2014-Aug-22 17:45 236 8 gusting 13 26.1
2014-Aug-22 17:30 244 7 gusting 13 26.7
2014-Aug-22 17:15 231 6 gusting 13 26.7
2014-Aug-22 16:00 206 6 gusting 9 27.2
2014-Aug-22 15:00 183 5 gusting 7 27.8
2014-Aug-22 14:15 158 6 gusting 12 26.7
2014-Aug-22 14:00 163 7 gusting 11 26.7
2014-Aug-22 12:45 151 6 gusting 10 26.7
2014-Aug-22 12:30 148 6 gusting 9 26.7
2014-Aug-22 12:15 145 6 gusting 13 26.7
2014-Aug-22 12:00 155 5 gusting 9 26.7
2014-Aug-22 11:15 133 5 gusting 10 26.7
2014-Aug-22 11:00 129 5 gusting 9 26.7
2014-Aug-22 10:45 119 3 gusting 6 26.7
2014-Aug-22 10:30 126 4 gusting 9 26.7
2014-Aug-22 10:00 127 2 gusting 6 26.7
2014-Aug-22 09:45 132 1 gusting 5 26.7
2014-Aug-22 09:00 132 2 gusting 5 26.1
2014-Aug-22 07:30 24.4
2014-Aug-22 07:15 23.9
2014-Aug-22 06:30 248 22.2
2014-Aug-22 06:15 249 0 gusting 2 22.2
2014-Aug-22 06:00 22.2
2014-Aug-22 05:45 22.2
2014-Aug-22 05:30 21.7
2014-Aug-22 05:15 22.2
2014-Aug-22 05:00 247 22.2
2014-Aug-22 04:30 247 0 gusting 3 22.2
2014-Aug-22 04:00 22.2
2014-Aug-22 03:30 22.8
2014-Aug-22 03:00 22.8
2014-Aug-22 02:30 247 23.3
2014-Aug-22 02:00 23.3
2014-Aug-22 01:15 23.9
2014-Aug-22 00:30 23.9
2014-Aug-22 00:15 23.9
2014-Aug-21 23:15 160 2 gusting 5 25.0
2014-Aug-21 23:00 156 3 gusting 6 25.0
2014-Aug-21 22:45 151 3 gusting 5 25.0
2014-Aug-21 22:00 192 0 gusting 2 25.0
2014-Aug-21 21:30 189 0 gusting 2 25.0
2014-Aug-21 20:45 235 1 gusting 3 25.0
2014-Aug-21 20:30 232 2 gusting 5 25.0
2014-Aug-21 19:45 228 2 gusting 5 25.0
2014-Aug-21 19:15 225 2 gusting 4 25.0
2014-Aug-21 18:45 219 3 gusting 5 25.6
2014-Aug-21 18:30 225 5 gusting 11 25.6
2014-Aug-21 18:15 210 3 gusting 6 26.1
2014-Aug-21 18:00 209 5 gusting 9 26.1
2014-Aug-21 17:30 171 5 gusting 10 26.7
2014-Aug-21 17:15 212 6 gusting 11 26.1
2014-Aug-21 17:00 208 5 gusting 7 26.7
2014-Aug-21 16:45 210 6 gusting 12 26.7
2014-Aug-21 16:15 166 5 gusting 9 27.2
2014-Aug-21 16:00 151 4 gusting 6 26.7
2014-Aug-21 15:45 133 4 gusting 6 27.2
2014-Aug-21 15:30 135 3 gusting 8 27.2
2014-Aug-21 15:15 150 3 gusting 6 27.2
2014-Aug-21 14:30 129 5 gusting 10 27.2
2014-Aug-21 14:15 132 5 gusting 6 27.2
2014-Aug-21 13:45 142 4 gusting 6 27.2
2014-Aug-21 13:30 143 3 gusting 6 27.2